createdAt,value
2019-04-07T00:04:16.929Z,10.27
2019-04-07T00:09:16.571Z,10.31
2019-04-07T00:18:15.226Z,9.82
2019-04-07T00:22:20.971Z,9.78
2019-04-07T00:26:26.814Z,9.94
2019-04-07T00:30:32.520Z,9.98
2019-04-07T00:34:38.222Z,10.21
2019-04-07T00:38:43.928Z,10.08
2019-04-07T00:42:50.166Z,9.99
2019-04-07T00:46:56.061Z,9.83
2019-04-07T00:51:01.752Z,9.68
2019-04-07T00:55:08.861Z,9.45
2019-04-07T00:59:14.601Z,9.61
2019-04-07T01:03:20.293Z,9.44
2019-04-07T01:07:26.127Z,9.44
2019-04-07T01:11:32.372Z,9.60
2019-04-07T01:15:38.393Z,9.33
2019-04-07T01:19:44.288Z,9.31
2019-04-07T01:23:50.215Z,9.29
2019-04-07T01:27:56.577Z,9.22
2019-04-07T01:32:02.398Z,9.27
2019-04-07T01:36:08.266Z,9.10
2019-04-07T01:40:14.499Z,8.99
2019-04-07T01:44:36.721Z,8.98
2019-04-07T01:48:44.756Z,9.08
2019-04-07T01:53:01.088Z,9.64
2019-04-07T01:57:12.731Z,9.85
2019-04-07T02:01:20.810Z,9.96
2019-04-07T02:05:32.365Z,9.84
2019-04-07T02:09:55.712Z,9.90
2019-04-07T02:14:09.029Z,9.98
2019-04-07T02:18:18.899Z,10.14
2019-04-07T02:22:25.588Z,10.18
2019-04-07T02:26:50.698Z,9.94
2019-04-07T02:31:00.873Z,9.52
2019-04-07T02:35:16.566Z,9.05
2019-04-07T02:39:24.696Z,8.84
2019-04-07T02:43:48.892Z,8.69
2019-04-07T02:47:56.475Z,8.79
2019-04-07T02:52:18.490Z,9.02
2019-04-07T02:56:34.509Z,9.21
2019-04-07T03:00:48.710Z,9.26
2019-04-07T03:05:06.306Z,8.73
2019-04-07T03:09:31.171Z,8.48
2019-04-07T03:13:54.280Z,8.44
2019-04-07T03:18:04.907Z,8.38
2019-04-07T03:22:29.253Z,8.25
2019-04-07T03:26:45.453Z,8.21
2019-04-07T03:30:58.435Z,8.22
2019-04-07T03:35:23.486Z,8.65
2019-04-07T03:39:39.388Z,8.83
2019-04-07T03:43:46.720Z,8.87
2019-04-07T03:47:56.836Z,8.88
2019-04-07T03:52:04.660Z,8.69
2019-04-07T03:56:14.508Z,8.34
2019-04-07T04:01:08.485Z,8.32
2019-04-07T04:05:18.919Z,8.56
2019-04-07T04:09:40.813Z,8.63
2019-04-07T04:13:51.133Z,8.37
2019-04-07T04:17:57.354Z,8.47
2019-04-07T04:22:03.995Z,8.11
2019-04-07T04:26:09.734Z,7.98
2019-04-07T04:30:15.492Z,8.48
2019-04-07T04:34:21.167Z,8.59
2019-04-07T04:38:27.319Z,8.37
2019-04-07T04:42:33.939Z,8.42
2019-04-07T04:46:40.907Z,8.65
2019-04-07T04:50:47.199Z,8.71
2019-04-07T04:54:53.681Z,8.68
2019-04-07T04:58:59.808Z,8.66
2019-04-07T05:03:05.629Z,8.63
2019-04-07T05:07:11.376Z,8.74
2019-04-07T05:11:17.507Z,8.43
2019-04-07T05:15:23.243Z,8.56
2019-04-07T05:19:28.939Z,8.79
2019-04-07T05:23:34.849Z,8.78
2019-04-07T05:27:41.523Z,8.84
2019-04-07T05:31:47.454Z,8.92
2019-04-07T05:35:53.329Z,8.92
2019-04-07T05:39:59.143Z,8.77
2019-04-07T05:44:05.538Z,9.20
2019-04-07T05:48:11.944Z,9.54
2019-04-07T05:52:18.109Z,9.46
2019-04-07T05:56:28.143Z,9.42
2019-04-07T06:00:31.221Z,9.17
2019-04-07T06:04:36.919Z,9.37
2019-04-07T06:08:42.655Z,9.35
2019-04-07T06:12:49.006Z,9.56
2019-04-07T06:16:55.711Z,9.93
2019-04-07T06:21:01.673Z,10.23
2019-04-07T06:25:09.757Z,10.38
2019-04-07T06:29:16.100Z,10.58
2019-04-07T06:33:22.848Z,10.71
2019-04-07T06:37:29.463Z,10.85
2019-04-07T06:41:35.230Z,10.91
2019-04-07T06:45:45.466Z,10.88
2019-04-07T06:50:09.592Z,10.95
2019-04-07T06:54:28.731Z,11.11
2019-04-07T06:58:41.861Z,11.14
2019-04-07T07:03:04.394Z,11.45
2019-04-07T07:07:13.039Z,11.86
2019-04-07T07:11:34.657Z,11.99
2019-04-07T07:15:42.858Z,11.95
2019-04-07T07:19:57.408Z,12.07
2019-04-07T07:24:03.317Z,12.23
2019-04-07T07:28:12.456Z,13.38
2019-04-07T07:32:18.015Z,14.26
2019-04-07T07:36:23.998Z,14.84
2019-04-07T07:40:29.976Z,15.17
2019-04-07T07:44:37.547Z,14.77
2019-04-07T07:48:43.148Z,14.24
2019-04-07T07:52:51.307Z,13.96
2019-04-07T07:56:57.062Z,13.86
2019-04-07T08:01:03.315Z,13.94
2019-04-07T08:05:09.341Z,14.11
2019-04-07T08:09:18.680Z,14.92
2019-04-07T08:13:22.539Z,15.92
2019-04-07T08:17:31.630Z,16.71
2019-04-07T08:21:35.690Z,17.59
2019-04-07T08:25:41.545Z,18.31
2019-04-07T08:29:47.451Z,18.93
2019-04-07T08:33:53.755Z,18.44
2019-04-07T08:38:00.963Z,17.92
2019-04-07T08:42:10.729Z,18.59
2019-04-07T08:46:14.194Z,19.31
2019-04-07T08:50:21.521Z,20.04
2019-04-07T08:54:27.605Z,19.85
2019-04-07T08:58:37.923Z,19.51
2019-04-07T09:02:40.743Z,19.60
2019-04-07T09:06:46.462Z,19.58
2019-04-07T09:10:53.882Z,18.64
2019-04-07T09:15:02.832Z,19.95
2019-04-07T09:19:15.599Z,21.43
2019-04-07T09:23:25.158Z,21.55
2019-04-07T09:27:28.255Z,21.23
2019-04-07T09:31:47.855Z,20.06
2019-04-07T09:36:07.966Z,18.80
2019-04-07T09:40:27.941Z,18.54
2019-04-07T09:44:50.741Z,19.58
2019-04-07T09:49:01.869Z,20.73
2019-04-07T09:53:19.539Z,20.72
2019-04-07T09:57:40.983Z,20.21
2019-04-07T10:01:57.043Z,20.47
2019-04-07T10:06:20.343Z,21.77
2019-04-07T10:10:31.609Z,23.51
2019-04-07T10:14:51.709Z,25.53
2019-04-07T10:18:59.280Z,26.78
2019-04-07T10:23:10.726Z,27.36
2019-04-07T10:27:20.663Z,28.32
2019-04-07T10:31:31.575Z,29.16
2019-04-07T10:35:55.208Z,29.07
2019-04-07T10:40:19.519Z,29.73
2019-04-07T10:44:21.334Z,30.51
2019-04-07T10:48:28.721Z,30.33
2019-04-07T10:52:36.142Z,30.86
2019-04-07T10:56:45.071Z,31.20
2019-04-07T11:01:14.512Z,31.43
2019-04-07T11:05:20.577Z,31.78
2019-04-07T11:09:28.395Z,32.28
2019-04-07T11:13:53.459Z,31.78
2019-04-07T11:17:59.268Z,31.82
2019-04-07T11:22:05.626Z,32.65
2019-04-07T11:26:22.012Z,32.88
2019-04-07T11:30:38.712Z,29.50
2019-04-07T11:34:46.668Z,29.00
2019-04-07T11:38:52.762Z,27.96
2019-04-07T11:42:59.037Z,29.29
2019-04-07T11:47:14.166Z,29.07
2019-04-07T11:51:27.967Z,26.57
2019-04-07T11:55:51.988Z,25.30
2019-04-07T12:00:18.389Z,25.83
2019-04-07T12:04:32.690Z,26.20
2019-04-07T12:08:44.585Z,29.26
2019-04-07T12:13:05.080Z,29.14
2019-04-07T12:17:13.801Z,30.21
2019-04-07T12:34:15.562Z,25.68
2019-04-07T12:39:18.927Z,26.20
2019-04-07T12:43:35.934Z,26.11
2019-04-07T12:48:36.070Z,25.94
2019-04-07T12:52:53.989Z,25.05
2019-04-07T12:57:18.838Z,24.29
2019-04-07T13:01:27.003Z,25.19
2019-04-07T13:06:22.271Z,25.89
2019-04-07T13:10:30.237Z,24.33
2019-04-07T13:15:35.466Z,23.03
2019-04-07T13:19:46.766Z,22.58
2019-04-07T13:24:31.805Z,21.90
2019-04-07T13:28:37.137Z,21.18
2019-04-07T13:33:23.750Z,21.03
2019-04-07T13:37:42.215Z,21.08
2019-04-07T13:42:19.660Z,20.87
2019-04-07T13:46:36.185Z,20.83
2019-04-07T13:51:19.909Z,20.67
2019-04-07T13:55:35.030Z,20.60
2019-04-07T14:00:29.408Z,20.50
2019-04-07T14:04:39.510Z,20.58
2019-04-07T14:09:35.422Z,20.54
2019-04-07T14:13:59.160Z,20.38
2019-04-07T14:18:21.368Z,20.23
2019-04-07T14:22:36.387Z,20.04
2019-04-07T14:27:29.757Z,20.09
2019-04-07T14:31:49.134Z,20.00
2019-04-07T14:36:25.011Z,19.95
2019-04-07T14:40:30.556Z,19.92
2019-04-07T14:45:26.411Z,20.01
2019-04-07T14:49:46.164Z,20.02
2019-04-07T14:54:19.674Z,20.15
2019-04-07T14:58:29.127Z,20.14
2019-04-07T15:03:17.043Z,20.02
2019-04-07T15:07:40.839Z,20.01
2019-04-07T15:11:48.720Z,20.10
2019-04-07T15:15:54.377Z,20.34
2019-04-07T15:20:00.094Z,20.37
2019-04-07T15:24:08.190Z,20.21
2019-04-07T15:28:15.986Z,20.12
2019-04-07T15:32:26.600Z,19.93
2019-04-07T15:36:29.983Z,19.91
2019-04-07T15:40:36.495Z,20.00
2019-04-07T15:44:42.748Z,20.02
2019-04-07T15:48:50.198Z,20.00
2019-04-07T15:52:56.390Z,19.89
2019-04-07T15:57:20.199Z,19.78
2019-04-07T16:01:24.965Z,19.64
2019-04-07T16:05:38.021Z,19.66
2019-04-07T16:09:47.870Z,19.67
2019-04-07T16:13:46.297Z,19.74
2019-04-07T16:17:52.290Z,19.45
2019-04-07T16:21:58.059Z,19.07
2019-04-07T16:26:03.794Z,18.90
2019-04-07T16:30:11.309Z,19.28
2019-04-07T16:57:45.072Z,18.74
2019-04-07T17:01:50.942Z,18.61
2019-04-07T17:05:59.346Z,18.65
2019-04-07T17:10:05.027Z,18.53
2019-04-07T17:14:11.697Z,18.50
2019-04-07T17:18:43.350Z,18.40
2019-04-07T17:22:49.449Z,18.46
2019-04-07T17:26:56.277Z,18.62
2019-04-07T17:36:31.046Z,18.58
2019-04-07T17:40:38.520Z,18.66
2019-04-07T17:44:48.318Z,18.58
2019-04-07T17:49:11.108Z,18.56
2019-04-07T17:53:36.733Z,18.62
2019-04-07T17:57:43.886Z,18.54
2019-04-07T18:01:54.417Z,18.49
2019-04-07T18:06:10.132Z,18.34
2019-04-07T18:10:26.389Z,18.07
2019-04-07T18:14:52.105Z,18.29
2019-04-07T18:19:05.463Z,17.99
2019-04-07T18:23:11.088Z,18.05
2019-04-07T18:27:36.304Z,17.88
2019-04-07T18:31:43.744Z,17.99
2019-04-07T18:35:57.019Z,18.08
2019-04-07T18:40:10.902Z,18.05
2019-04-07T18:44:18.409Z,18.00
2019-04-07T18:48:28.794Z,18.48
2019-04-07T18:52:33.950Z,18.81
2019-04-07T18:56:41.730Z,18.58
2019-04-07T19:01:07.373Z,18.79
2019-04-07T19:05:13.202Z,18.66
2019-04-07T19:09:23.934Z,18.53
2019-04-07T19:13:33.567Z,18.50
2019-04-07T19:17:41.018Z,18.47
2019-04-07T19:22:06.702Z,17.95
2019-04-07T19:26:18.461Z,17.81
2019-04-07T19:30:38.960Z,17.70
2019-04-07T19:35:03.310Z,17.40
2019-04-07T19:39:30.940Z,17.01
2019-04-07T19:43:44.669Z,16.86
2019-04-07T19:48:06.438Z,17.13
2019-04-07T19:52:12.695Z,17.31
2019-04-07T19:56:27.285Z,16.24
2019-04-07T20:00:54.278Z,16.09
2019-04-07T20:05:18.445Z,16.45
2019-04-07T20:09:39.471Z,16.28
2019-04-07T20:13:49.483Z,16.22
2019-04-07T20:17:58.374Z,15.69
2019-04-07T20:22:22.811Z,15.21
2019-04-07T20:26:28.417Z,15.08
2019-04-07T20:30:45.564Z,15.05
2019-04-07T20:34:50.747Z,14.89
2019-04-07T20:39:01.790Z,14.75
2019-04-07T20:43:23.150Z,14.68
2019-04-07T20:47:34.549Z,14.93
2019-04-07T20:51:40.966Z,15.09
2019-04-07T20:55:54.296Z,14.65
2019-04-07T21:00:03.581Z,14.87
2019-04-07T21:04:27.583Z,14.77
2019-04-07T21:08:38.768Z,14.30
2019-04-07T21:12:45.423Z,14.14
2019-04-07T21:16:55.334Z,13.95
2019-04-07T21:21:09.614Z,13.88
2019-04-07T21:25:24.245Z,13.75
2019-04-07T21:29:34.573Z,13.84
2019-04-07T21:33:44.360Z,13.52
2019-04-07T21:37:55.079Z,13.80
2019-04-07T21:42:03.013Z,13.70
2019-04-07T21:46:13.400Z,13.69
2019-04-07T21:50:26.553Z,13.40
2019-04-07T21:54:50.380Z,13.16
2019-04-07T21:58:59.199Z,13.08
2019-04-07T22:03:15.861Z,13.03
2019-04-07T22:07:27.651Z,13.10
2019-04-07T22:11:34.736Z,13.07
2019-04-07T22:15:45.923Z,13.26
2019-04-07T22:19:49.051Z,13.22
2019-04-07T22:23:54.912Z,13.13
2019-04-07T22:28:00.885Z,13.23
2019-04-07T22:32:07.498Z,13.00
2019-04-07T22:36:14.652Z,13.06
2019-04-07T22:40:22.564Z,13.08
2019-04-07T22:44:28.263Z,12.92
2019-04-07T22:48:34.933Z,12.62
2019-04-07T22:52:40.632Z,12.41
2019-04-07T22:56:46.700Z,12.29
2019-04-07T23:00:52.550Z,12.12
2019-04-07T23:05:00.850Z,12.62
2019-04-07T23:09:08.810Z,12.24
2019-04-07T23:13:15.416Z,12.15
2019-04-07T23:17:21.380Z,11.99
2019-04-07T23:21:27.927Z,11.94
2019-04-07T23:25:34.370Z,11.95
2019-04-07T23:29:40.023Z,11.61
2019-04-07T23:33:45.931Z,11.74
2019-04-07T23:37:51.569Z,11.62
2019-04-07T23:41:57.517Z,11.57
2019-04-07T23:46:05.140Z,11.42
2019-04-07T23:50:11.174Z,11.41
2019-04-07T23:54:18.293Z,11.57
2019-04-07T23:58:24.127Z,11.41
